sensor_id;sensor_type;location;lat;lon;timestamp;P1;durP1;ratioP1;P2;durP2;ratioP2
13321;SDS011;6730;46.248;6.930;2023-08-30T00:01:40;1.00;;;0.90;;
13321;SDS011;6730;46.248;6.930;2023-08-30T00:04:09;1.02;;;1.00;;
13321;SDS011;6730;46.248;6.930;2023-08-30T00:06:35;0.90;;;0.90;;
13321;SDS011;6730;46.248;6.930;2023-08-30T00:09:00;2.22;;;0.93;;
13321;SDS011;6730;46.248;6.930;2023-08-30T00:11:27;1.30;;;1.20;;
13321;SDS011;6730;46.248;6.930;2023-08-30T00:13:57;1.80;;;1.20;;
13321;SDS011;6730;46.248;6.930;2023-08-30T00:16:28;1.50;;;1.25;;
13321;SDS011;6730;46.248;6.930;2023-08-30T00:18:54;1.65;;;1.13;;
13321;SDS011;6730;46.248;6.930;2023-08-30T00:21:20;1.40;;;1.30;;
13321;SDS011;6730;46.248;6.930;2023-08-30T00:23:46;1.75;;;1.02;;
13321;SDS011;6730;46.248;6.930;2023-08-30T00:26:11;1.00;;;1.00;;
13321;SDS011;6730;46.248;6.930;2023-08-30T00:28:37;1.58;;;1.45;;
13321;SDS011;6730;46.248;6.930;2023-08-30T00:31:03;1.63;;;1.00;;
13321;SDS011;6730;46.248;6.930;2023-08-30T00:33:28;1.38;;;1.27;;
13321;SDS011;6730;46.248;6.930;2023-08-30T00:36:02;1.35;;;1.25;;
13321;SDS011;6730;46.248;6.930;2023-08-30T00:38:33;1.80;;;1.13;;
13321;SDS011;6730;46.248;6.930;2023-08-30T00:41:15;1.30;;;1.20;;
13321;SDS011;6730;46.248;6.930;2023-08-30T00:43:40;1.10;;;1.00;;
13321;SDS011;6730;46.248;6.930;2023-08-30T00:46:11;1.40;;;1.30;;
13321;SDS011;6730;46.248;6.930;2023-08-30T00:48:38;1.25;;;1.15;;
13321;SDS011;6730;46.248;6.930;2023-08-30T00:51:05;2.55;;;1.20;;
13321;SDS011;6730;46.248;6.930;2023-08-30T00:53:39;1.45;;;1.30;;
13321;SDS011;6730;46.248;6.930;2023-08-30T00:56:05;1.20;;;1.10;;
13321;SDS011;6730;46.248;6.930;2023-08-30T00:58:31;1.85;;;1.45;;
13321;SDS011;6730;46.248;6.930;2023-08-30T01:00:57;1.20;;;1.10;;
13321;SDS011;6730;46.248;6.930;2023-08-30T01:03:23;1.48;;;1.38;;
13321;SDS011;6730;46.248;6.930;2023-08-30T01:05:49;1.65;;;1.20;;
13321;SDS011;6730;46.248;6.930;2023-08-30T01:08:14;1.45;;;1.20;;
13321;SDS011;6730;46.248;6.930;2023-08-30T01:13:33;1.58;;;1.30;;
13321;SDS011;6730;46.248;6.930;2023-08-30T01:16:21;1.27;;;1.10;;
13321;SDS011;6730;46.248;6.930;2023-08-30T01:18:57;1.88;;;1.20;;
13321;SDS011;6730;46.248;6.930;2023-08-30T01:24:29;1.50;;;1.40;;
13321;SDS011;6730;46.248;6.930;2023-08-30T01:27:14;1.40;;;1.30;;
13321;SDS011;6730;46.248;6.930;2023-08-30T01:29:51;3.22;;;1.40;;
13321;SDS011;6730;46.248;6.930;2023-08-30T01:32:24;1.70;;;1.38;;
13321;SDS011;6730;46.248;6.930;2023-08-30T01:35:02;1.30;;;1.20;;
13321;SDS011;6730;46.248;6.930;2023-08-30T01:37:32;1.45;;;1.20;;
13321;SDS011;6730;46.248;6.930;2023-08-30T01:40:07;1.35;;;1.10;;
13321;SDS011;6730;46.248;6.930;2023-08-30T01:42:41;1.45;;;1.30;;
13321;SDS011;6730;46.248;6.930;2023-08-30T01:45:22;2.65;;;1.10;;
13321;SDS011;6730;46.248;6.930;2023-08-30T01:47:49;1.20;;;1.10;;
13321;SDS011;6730;46.248;6.930;2023-08-30T01:50:21;1.60;;;1.30;;
13321;SDS011;6730;46.248;6.930;2023-08-30T01:52:50;1.25;;;1.15;;
13321;SDS011;6730;46.248;6.930;2023-08-30T01:55:23;1.52;;;1.15;;
13321;SDS011;6730;46.248;6.930;2023-08-30T01:57:54;1.83;;;1.23;;
13321;SDS011;6730;46.248;6.930;2023-08-30T02:00:20;1.20;;;1.10;;
13321;SDS011;6730;46.248;6.930;2023-08-30T02:02:49;1.65;;;1.40;;
13321;SDS011;6730;46.248;6.930;2023-08-30T02:05:25;1.63;;;1.20;;
13321;SDS011;6730;46.248;6.930;2023-08-30T02:08:02;2.28;;;1.20;;
13321;SDS011;6730;46.248;6.930;2023-08-30T02:10:39;1.20;;;1.10;;
13321;SDS011;6730;46.248;6.930;2023-08-30T02:13:15;1.95;;;1.30;;
13321;SDS011;6730;46.248;6.930;2023-08-30T02:15:49;1.27;;;1.17;;
13321;SDS011;6730;46.248;6.930;2023-08-30T02:18:21;1.20;;;1.10;;
13321;SDS011;6730;46.248;6.930;2023-08-30T02:20:51;1.35;;;1.25;;
13321;SDS011;6730;46.248;6.930;2023-08-30T02:23:24;2.92;;;1.27;;
13321;SDS011;6730;46.248;6.930;2023-08-30T02:25:56;1.40;;;1.30;;
13321;SDS011;6730;46.248;6.930;2023-08-30T02:28:28;1.33;;;1.23;;
13321;SDS011;6730;46.248;6.930;2023-08-30T02:31:06;1.40;;;1.30;;
13321;SDS011;6730;46.248;6.930;2023-08-30T02:33:37;0.82;;;0.82;;
13321;SDS011;6730;46.248;6.930;2023-08-30T02:36:03;1.27;;;1.17;;
13321;SDS011;6730;46.248;6.930;2023-08-30T02:38:39;1.33;;;1.20;;
13321;SDS011;6730;46.248;6.930;2023-08-30T02:41:10;2.55;;;1.20;;
13321;SDS011;6730;46.248;6.930;2023-08-30T02:43:43;1.10;;;1.00;;
13321;SDS011;6730;46.248;6.930;2023-08-30T02:46:14;1.17;;;1.02;;
13321;SDS011;6730;46.248;6.930;2023-08-30T02:48:45;1.25;;;1.15;;
13321;SDS011;6730;46.248;6.930;2023-08-30T02:51:24;2.17;;;1.15;;
13321;SDS011;6730;46.248;6.930;2023-08-30T02:53:50;1.38;;;1.00;;
13321;SDS011;6730;46.248;6.930;2023-08-30T02:56:23;2.28;;;1.42;;
13321;SDS011;6730;46.248;6.930;2023-08-30T02:58:52;1.50;;;1.30;;
13321;SDS011;6730;46.248;6.930;2023-08-30T03:01:23;2.17;;;1.10;;
13321;SDS011;6730;46.248;6.930;2023-08-30T03:03:57;3.83;;;1.55;;
13321;SDS011;6730;46.248;6.930;2023-08-30T03:06:22;1.95;;;1.02;;
13321;SDS011;6730;46.248;6.930;2023-08-30T03:08:56;1.60;;;1.20;;
13321;SDS011;6730;46.248;6.930;2023-08-30T03:11:24;1.30;;;1.20;;
13321;SDS011;6730;46.248;6.930;2023-08-30T03:13:57;0.90;;;0.90;;
13321;SDS011;6730;46.248;6.930;2023-08-30T03:16:24;1.25;;;1.10;;
13321;SDS011;6730;46.248;6.930;2023-08-30T03:18:52;1.63;;;1.20;;
13321;SDS011;6730;46.248;6.930;2023-08-30T03:21:26;3.30;;;1.23;;
13321;SDS011;6730;46.248;6.930;2023-08-30T03:23:58;1.38;;;1.20;;
13321;SDS011;6730;46.248;6.930;2023-08-30T03:26:54;1.20;;;1.10;;
13321;SDS011;6730;46.248;6.930;2023-08-30T03:29:30;1.40;;;1.02;;
13321;SDS011;6730;46.248;6.930;2023-08-30T03:32:04;1.30;;;1.20;;
13321;SDS011;6730;46.248;6.930;2023-08-30T03:34:39;1.45;;;1.13;;
13321;SDS011;6730;46.248;6.930;2023-08-30T03:37:05;1.15;;;1.05;;
13321;SDS011;6730;46.248;6.930;2023-08-30T03:39:36;1.23;;;1.13;;
13321;SDS011;6730;46.248;6.930;2023-08-30T03:42:09;1.30;;;1.20;;
13321;SDS011;6730;46.248;6.930;2023-08-30T03:44:40;1.40;;;0.98;;
13321;SDS011;6730;46.248;6.930;2023-08-30T03:47:11;1.20;;;1.10;;
13321;SDS011;6730;46.248;6.930;2023-08-30T03:49:39;1.30;;;1.20;;
13321;SDS011;6730;46.248;6.930;2023-08-30T03:52:07;3.72;;;1.20;;
13321;SDS011;6730;46.248;6.930;2023-08-30T03:54:40;1.63;;;1.20;;
13321;SDS011;6730;46.248;6.930;2023-08-30T03:57:08;1.55;;;1.45;;
13321;SDS011;6730;46.248;6.930;2023-08-30T03:59:37;0.93;;;0.93;;
13321;SDS011;6730;46.248;6.930;2023-08-30T04:02:07;1.15;;;1.05;;
13321;SDS011;6730;46.248;6.930;2023-08-30T04:04:37;1.02;;;0.93;;
13321;SDS011;6730;46.248;6.930;2023-08-30T04:07:14;1.83;;;1.20;;
13321;SDS011;6730;46.248;6.930;2023-08-30T04:09:50;1.45;;;1.30;;
13321;SDS011;6730;46.248;6.930;2023-08-30T04:12:21;5.07;;;1.52;;
13321;SDS011;6730;46.248;6.930;2023-08-30T04:14:54;1.30;;;1.20;;
13321;SDS011;6730;46.248;6.930;2023-08-30T04:17:25;1.20;;;1.10;;
13321;SDS011;6730;46.248;6.930;2023-08-30T04:20:05;1.20;;;1.10;;
13321;SDS011;6730;46.248;6.930;2023-08-30T04:22:50;2.20;;;1.10;;
13321;SDS011;6730;46.248;6.930;2023-08-30T04:25:29;1.30;;;1.20;;
13321;SDS011;6730;46.248;6.930;2023-08-30T04:28:18;1.40;;;1.30;;
13321;SDS011;6730;46.248;6.930;2023-08-30T04:31:02;1.38;;;1.27;;
13321;SDS011;6730;46.248;6.930;2023-08-30T04:33:28;1.10;;;1.00;;
13321;SDS011;6730;46.248;6.930;2023-08-30T04:35:56;1.35;;;1.25;;
13321;SDS011;6730;46.248;6.930;2023-08-30T04:38:46;1.83;;;1.15;;
13321;SDS011;6730;46.248;6.930;2023-08-30T04:41:27;1.17;;;1.08;;
13321;SDS011;6730;46.248;6.930;2023-08-30T04:43:58;1.50;;;1.38;;
13321;SDS011;6730;46.248;6.930;2023-08-30T04:46:36;1.20;;;1.10;;
13321;SDS011;6730;46.248;6.930;2023-08-30T04:49:07;1.98;;;1.30;;
13321;SDS011;6730;46.248;6.930;2023-08-30T04:51:35;1.45;;;1.30;;
13321;SDS011;6730;46.248;6.930;2023-08-30T04:54:04;1.00;;;0.90;;
13321;SDS011;6730;46.248;6.930;2023-08-30T04:56:53;1.30;;;1.10;;
13321;SDS011;6730;46.248;6.930;2023-08-30T04:59:30;1.08;;;1.00;;
13321;SDS011;6730;46.248;6.930;2023-08-30T05:02:04;3.25;;;1.30;;
13321;SDS011;6730;46.248;6.930;2023-08-30T05:04:36;1.40;;;1.30;;
13321;SDS011;6730;46.248;6.930;2023-08-30T05:07:02;2.45;;;1.05;;
13321;SDS011;6730;46.248;6.930;2023-08-30T05:09:33;1.52;;;1.17;;
13321;SDS011;6730;46.248;6.930;2023-08-30T05:12:02;1.40;;;1.10;;
13321;SDS011;6730;46.248;6.930;2023-08-30T05:14:33;1.20;;;1.10;;
13321;SDS011;6730;46.248;6.930;2023-08-30T05:16:59;1.27;;;1.10;;
13321;SDS011;6730;46.248;6.930;2023-08-30T05:19:30;1.98;;;1.20;;
13321;SDS011;6730;46.248;6.930;2023-08-30T05:22:03;1.65;;;1.33;;
13321;SDS011;6730;46.248;6.930;2023-08-30T05:24:34;1.08;;;0.98;;
13321;SDS011;6730;46.248;6.930;2023-08-30T05:27:00;1.38;;;1.20;;
13321;SDS011;6730;46.248;6.930;2023-08-30T05:29:33;1.40;;;1.10;;
13321;SDS011;6730;46.248;6.930;2023-08-30T05:32:04;1.45;;;1.35;;
13321;SDS011;6730;46.248;6.930;2023-08-30T05:34:33;1.60;;;1.20;;
13321;SDS011;6730;46.248;6.930;2023-08-30T05:37:07;2.25;;;1.50;;
13321;SDS011;6730;46.248;6.930;2023-08-30T05:39:37;1.30;;;1.20;;
13321;SDS011;6730;46.248;6.930;2023-08-30T05:42:08;3.13;;;1.50;;
13321;SDS011;6730;46.248;6.930;2023-08-30T05:44:41;1.80;;;1.60;;
13321;SDS011;6730;46.248;6.930;2023-08-30T05:47:10;1.50;;;1.33;;
13321;SDS011;6730;46.248;6.930;2023-08-30T05:49:48;1.50;;;1.38;;
13321;SDS011;6730;46.248;6.930;2023-08-30T05:52:28;1.50;;;1.40;;
13321;SDS011;6730;46.248;6.930;2023-08-30T05:55:07;1.55;;;1.30;;
13321;SDS011;6730;46.248;6.930;2023-08-30T05:57:38;4.03;;;1.50;;
13321;SDS011;6730;46.248;6.930;2023-08-30T06:00:06;1.65;;;1.20;;
13321;SDS011;6730;46.248;6.930;2023-08-30T06:02:41;2.33;;;1.33;;
13321;SDS011;6730;46.248;6.930;2023-08-30T06:05:12;2.78;;;1.48;;
13321;SDS011;6730;46.248;6.930;2023-08-30T06:07:45;1.95;;;1.48;;
13321;SDS011;6730;46.248;6.930;2023-08-30T06:10:19;1.60;;;1.50;;
13321;SDS011;6730;46.248;6.930;2023-08-30T06:12:53;3.88;;;1.33;;
13321;SDS011;6730;46.248;6.930;2023-08-30T06:15:19;2.08;;;1.23;;
13321;SDS011;6730;46.248;6.930;2023-08-30T06:17:45;3.05;;;1.17;;
13321;SDS011;6730;46.248;6.930;2023-08-30T06:20:12;1.40;;;1.30;;
13321;SDS011;6730;46.248;6.930;2023-08-30T06:22:41;1.35;;;1.23;;
13321;SDS011;6730;46.248;6.930;2023-08-30T06:25:08;2.08;;;1.40;;
13321;SDS011;6730;46.248;6.930;2023-08-30T06:27:40;2.67;;;1.25;;
13321;SDS011;6730;46.248;6.930;2023-08-30T06:30:20;2.15;;;1.38;;
13321;SDS011;6730;46.248;6.930;2023-08-30T06:32:49;1.40;;;1.30;;
13321;SDS011;6730;46.248;6.930;2023-08-30T06:35:17;2.97;;;1.10;;
13321;SDS011;6730;46.248;6.930;2023-08-30T06:37:45;2.45;;;1.35;;
13321;SDS011;6730;46.248;6.930;2023-08-30T06:40:20;2.10;;;1.92;;
13321;SDS011;6730;46.248;6.930;2023-08-30T06:42:49;1.40;;;1.30;;
13321;SDS011;6730;46.248;6.930;2023-08-30T06:45:17;2.28;;;1.90;;
13321;SDS011;6730;46.248;6.930;2023-08-30T06:47:47;2.00;;;1.45;;
13321;SDS011;6730;46.248;6.930;2023-08-30T06:50:14;1.88;;;1.40;;
13321;SDS011;6730;46.248;6.930;2023-08-30T06:52:42;1.65;;;1.20;;
13321;SDS011;6730;46.248;6.930;2023-08-30T06:55:14;1.20;;;1.10;;
13321;SDS011;6730;46.248;6.930;2023-08-30T06:57:47;1.67;;;1.23;;
13321;SDS011;6730;46.248;6.930;2023-08-30T07:00:24;1.38;;;1.27;;
13321;SDS011;6730;46.248;6.930;2023-08-30T07:03:54;1.00;;;1.00;;
13321;SDS011;6730;46.248;6.930;2023-08-30T07:06:29;1.30;;;1.20;;
13321;SDS011;6730;46.248;6.930;2023-08-30T07:09:03;2.10;;;1.15;;
13321;SDS011;6730;46.248;6.930;2023-08-30T07:11:31;1.25;;;1.10;;
13321;SDS011;6730;46.248;6.930;2023-08-30T07:13:59;1.42;;;1.20;;
13321;SDS011;6730;46.248;6.930;2023-08-30T07:16:32;3.17;;;1.60;;
13321;SDS011;6730;46.248;6.930;2023-08-30T07:22:07;1.48;;;1.38;;
13321;SDS011;6730;46.248;6.930;2023-08-30T07:24:45;1.42;;;1.33;;
13321;SDS011;6730;46.248;6.930;2023-08-30T07:27:11;1.55;;;1.45;;
13321;SDS011;6730;46.248;6.930;2023-08-30T07:29:39;2.55;;;1.65;;
13321;SDS011;6730;46.248;6.930;2023-08-30T07:32:10;1.60;;;1.38;;
13321;SDS011;6730;46.248;6.930;2023-08-30T07:34:38;2.08;;;1.60;;
13321;SDS011;6730;46.248;6.930;2023-08-30T07:37:23;1.88;;;1.60;;
13321;SDS011;6730;46.248;6.930;2023-08-30T07:39:52;1.60;;;1.50;;
13321;SDS011;6730;46.248;6.930;2023-08-30T07:42:30;1.90;;;1.67;;
13321;SDS011;6730;46.248;6.930;2023-08-30T07:45:04;1.52;;;1.42;;
13321;SDS011;6730;46.248;6.930;2023-08-30T07:47:43;3.20;;;1.52;;
13321;SDS011;6730;46.248;6.930;2023-08-30T07:50:09;2.25;;;1.45;;
13321;SDS011;6730;46.248;6.930;2023-08-30T07:52:35;1.48;;;1.38;;
13321;SDS011;6730;46.248;6.930;2023-08-30T07:55:00;1.80;;;1.70;;
13321;SDS011;6730;46.248;6.930;2023-08-30T07:57:29;1.70;;;1.45;;
13321;SDS011;6730;46.248;6.930;2023-08-30T07:59:59;5.00;;;1.63;;
13321;SDS011;6730;46.248;6.930;2023-08-30T08:02:39;1.95;;;1.73;;
13321;SDS011;6730;46.248;6.930;2023-08-30T08:05:07;2.15;;;1.83;;
13321;SDS011;6730;46.248;6.930;2023-08-30T08:07:38;1.70;;;1.60;;
13321;SDS011;6730;46.248;6.930;2023-08-30T08:10:07;2.78;;;1.60;;
13321;SDS011;6730;46.248;6.930;2023-08-30T08:12:37;3.13;;;1.73;;
13321;SDS011;6730;46.248;6.930;2023-08-30T08:15:13;3.63;;;1.70;;
13321;SDS011;6730;46.248;6.930;2023-08-30T08:17:44;2.90;;;1.48;;
13321;SDS011;6730;46.248;6.930;2023-08-30T08:20:20;3.70;;;1.60;;
13321;SDS011;6730;46.248;6.930;2023-08-30T08:22:57;1.60;;;1.50;;
13321;SDS011;6730;46.248;6.930;2023-08-30T08:25:35;2.22;;;1.58;;
13321;SDS011;6730;46.248;6.930;2023-08-30T08:28:03;2.97;;;1.38;;
13321;SDS011;6730;46.248;6.930;2023-08-30T08:30:35;2.88;;;1.30;;
13321;SDS011;6730;46.248;6.930;2023-08-30T08:33:01;1.75;;;1.63;;
13321;SDS011;6730;46.248;6.930;2023-08-30T08:35:28;1.45;;;1.35;;
13321;SDS011;6730;46.248;6.930;2023-08-30T08:37:56;2.75;;;1.50;;
13321;SDS011;6730;46.248;6.930;2023-08-30T08:40:27;2.17;;;1.98;;
13321;SDS011;6730;46.248;6.930;2023-08-30T08:42:59;2.20;;;1.77;;
13321;SDS011;6730;46.248;6.930;2023-08-30T08:45:33;1.70;;;1.60;;
13321;SDS011;6730;46.248;6.930;2023-08-30T08:48:08;3.65;;;1.48;;
13321;SDS011;6730;46.248;6.930;2023-08-30T08:50:45;2.22;;;1.58;;
13321;SDS011;6730;46.248;6.930;2023-08-30T08:53:11;2.17;;;1.60;;
13321;SDS011;6730;46.248;6.930;2023-08-30T08:55:38;1.38;;;1.27;;
13321;SDS011;6730;46.248;6.930;2023-08-30T08:58:05;1.88;;;1.70;;
13321;SDS011;6730;46.248;6.930;2023-08-30T09:00:36;1.75;;;1.58;;
13321;SDS011;6730;46.248;6.930;2023-08-30T09:03:08;2.20;;;1.90;;
13321;SDS011;6730;46.248;6.930;2023-08-30T09:05:36;1.50;;;1.40;;
13321;SDS011;6730;46.248;6.930;2023-08-30T09:08:08;2.10;;;1.63;;
13321;SDS011;6730;46.248;6.930;2023-08-30T09:10:41;1.40;;;1.30;;
13321;SDS011;6730;46.248;6.930;2023-08-30T09:13:27;1.40;;;1.30;;
13321;SDS011;6730;46.248;6.930;2023-08-30T09:15:58;2.72;;;1.48;;
13321;SDS011;6730;46.248;6.930;2023-08-30T09:18:30;2.03;;;1.67;;
13321;SDS011;6730;46.248;6.930;2023-08-30T09:21:08;1.60;;;1.50;;
13321;SDS011;6730;46.248;6.930;2023-08-30T09:23:39;1.50;;;1.40;;
13321;SDS011;6730;46.248;6.930;2023-08-30T09:26:13;1.60;;;1.50;;
13321;SDS011;6730;46.248;6.930;2023-08-30T09:28:43;1.73;;;1.63;;
13321;SDS011;6730;46.248;6.930;2023-08-30T09:31:18;1.90;;;1.70;;
13321;SDS011;6730;46.248;6.930;2023-08-30T09:33:48;2.70;;;2.20;;
13321;SDS011;6730;46.248;6.930;2023-08-30T09:36:27;1.67;;;1.58;;
13321;SDS011;6730;46.248;6.930;2023-08-30T09:39:18;2.05;;;1.70;;
13321;SDS011;6730;46.248;6.930;2023-08-30T09:41:47;1.45;;;1.35;;
13321;SDS011;6730;46.248;6.930;2023-08-30T09:44:17;1.95;;;1.40;;
13321;SDS011;6730;46.248;6.930;2023-08-30T09:46:54;1.73;;;1.63;;
13321;SDS011;6730;46.248;6.930;2023-08-30T09:49:29;1.98;;;1.70;;
13321;SDS011;6730;46.248;6.930;2023-08-30T09:52:08;1.90;;;1.50;;
13321;SDS011;6730;46.248;6.930;2023-08-30T09:54:42;1.80;;;1.70;;
13321;SDS011;6730;46.248;6.930;2023-08-30T09:57:18;1.67;;;1.55;;
13321;SDS011;6730;46.248;6.930;2023-08-30T09:59:57;1.58;;;1.48;;
13321;SDS011;6730;46.248;6.930;2023-08-30T10:02:30;1.98;;;1.67;;
13321;SDS011;6730;46.248;6.930;2023-08-30T10:04:56;4.15;;;1.80;;
13321;SDS011;6730;46.248;6.930;2023-08-30T10:07:31;1.80;;;1.70;;
13321;SDS011;6730;46.248;6.930;2023-08-30T10:09:57;4.18;;;1.63;;
13321;SDS011;6730;46.248;6.930;2023-08-30T10:12:24;1.80;;;1.70;;
13321;SDS011;6730;46.248;6.930;2023-08-30T10:14:54;2.03;;;1.83;;
13321;SDS011;6730;46.248;6.930;2023-08-30T10:17:22;2.03;;;1.70;;
13321;SDS011;6730;46.248;6.930;2023-08-30T10:19:58;1.67;;;1.58;;
13321;SDS011;6730;46.248;6.930;2023-08-30T10:22:26;1.55;;;1.40;;
13321;SDS011;6730;46.248;6.930;2023-08-30T10:28:04;3.95;;;2.10;;
13321;SDS011;6730;46.248;6.930;2023-08-30T10:30:33;2.20;;;1.88;;
13321;SDS011;6730;46.248;6.930;2023-08-30T10:33:11;2.10;;;1.88;;
13321;SDS011;6730;46.248;6.930;2023-08-30T10:35:46;1.85;;;1.67;;
13321;SDS011;6730;46.248;6.930;2023-08-30T10:38:29;3.25;;;1.90;;
13321;SDS011;6730;46.248;6.930;2023-08-30T10:40:58;2.28;;;1.85;;
13321;SDS011;6730;46.248;6.930;2023-08-30T10:43:36;2.50;;;1.70;;
13321;SDS011;6730;46.248;6.930;2023-08-30T10:46:07;2.60;;;2.05;;
13321;SDS011;6730;46.248;6.930;2023-08-30T10:48:39;1.88;;;1.77;;
13321;SDS011;6730;46.248;6.930;2023-08-30T10:51:15;2.80;;;1.75;;
13321;SDS011;6730;46.248;6.930;2023-08-30T10:53:58;2.25;;;2.05;;
13321;SDS011;6730;46.248;6.930;2023-08-30T10:56:29;2.05;;;1.85;;
13321;SDS011;6730;46.248;6.930;2023-08-30T10:59:01;2.13;;;1.92;;
13321;SDS011;6730;46.248;6.930;2023-08-30T11:01:30;1.88;;;1.77;;
13321;SDS011;6730;46.248;6.930;2023-08-30T11:03:58;1.70;;;1.60;;
13321;SDS011;6730;46.248;6.930;2023-08-30T11:06:27;1.90;;;1.80;;
13321;SDS011;6730;46.248;6.930;2023-08-30T11:09:02;2.35;;;1.80;;
13321;SDS011;6730;46.248;6.930;2023-08-30T11:11:37;2.67;;;1.88;;
13321;SDS011;6730;46.248;6.930;2023-08-30T11:14:05;1.70;;;1.60;;
13321;SDS011;6730;46.248;6.930;2023-08-30T11:16:53;1.58;;;1.48;;
13321;SDS011;6730;46.248;6.930;2023-08-30T11:19:20;2.17;;;1.98;;
13321;SDS011;6730;46.248;6.930;2023-08-30T11:21:46;2.38;;;1.98;;
13321;SDS011;6730;46.248;6.930;2023-08-30T11:24:12;1.85;;;1.73;;
13321;SDS011;6730;46.248;6.930;2023-08-30T11:26:38;2.33;;;2.00;;
13321;SDS011;6730;46.248;6.930;2023-08-30T11:29:04;1.75;;;1.60;;
13321;SDS011;6730;46.248;6.930;2023-08-30T11:31:33;1.95;;;1.77;;
13321;SDS011;6730;46.248;6.930;2023-08-30T11:33:59;1.70;;;1.60;;
13321;SDS011;6730;46.248;6.930;2023-08-30T11:36:29;2.20;;;2.00;;
13321;SDS011;6730;46.248;6.930;2023-08-30T11:38:56;2.10;;;1.90;;
13321;SDS011;6730;46.248;6.930;2023-08-30T11:41:23;2.25;;;1.60;;
13321;SDS011;6730;46.248;6.930;2023-08-30T11:43:49;1.55;;;1.45;;
13321;SDS011;6730;46.248;6.930;2023-08-30T11:46:19;1.83;;;1.52;;
13321;SDS011;6730;46.248;6.930;2023-08-30T11:48:46;1.92;;;1.52;;
13321;SDS011;6730;46.248;6.930;2023-08-30T11:51:13;4.60;;;1.50;;
13321;SDS011;6730;46.248;6.930;2023-08-30T11:53:39;1.60;;;1.50;;
13321;SDS011;6730;46.248;6.930;2023-08-30T11:56:06;2.28;;;1.10;;
13321;SDS011;6730;46.248;6.930;2023-08-30T11:58:33;2.08;;;1.30;;
13321;SDS011;6730;46.248;6.930;2023-08-30T12:00:59;2.15;;;1.30;;
13321;SDS011;6730;46.248;6.930;2023-08-30T12:03:29;1.77;;;1.50;;
13321;SDS011;6730;46.248;6.930;2023-08-30T12:05:56;1.33;;;1.23;;
13321;SDS011;6730;46.248;6.930;2023-08-30T12:08:23;1.98;;;1.30;;
13321;SDS011;6730;46.248;6.930;2023-08-30T12:10:56;1.50;;;1.40;;
13321;SDS011;6730;46.248;6.930;2023-08-30T12:15:58;1.30;;;1.20;;
13321;SDS011;6730;46.248;6.930;2023-08-30T12:18:24;2.13;;;1.30;;
13321;SDS011;6730;46.248;6.930;2023-08-30T12:23:41;3.05;;;1.40;;
13321;SDS011;6730;46.248;6.930;2023-08-30T12:26:10;2.20;;;1.45;;
13321;SDS011;6730;46.248;6.930;2023-08-30T12:28:37;2.42;;;1.27;;
13321;SDS011;6730;46.248;6.930;2023-08-30T12:31:04;1.25;;;1.15;;
13321;SDS011;6730;46.248;6.930;2023-08-30T12:33:30;2.60;;;1.35;;
13321;SDS011;6730;46.248;6.930;2023-08-30T12:35:56;1.70;;;1.40;;
13321;SDS011;6730;46.248;6.930;2023-08-30T12:38:23;1.40;;;1.13;;
13321;SDS011;6730;46.248;6.930;2023-08-30T12:40:53;1.45;;;1.30;;
13321;SDS011;6730;46.248;6.930;2023-08-30T12:43:20;1.60;;;1.30;;
13321;SDS011;6730;46.248;6.930;2023-08-30T12:45:46;2.67;;;1.52;;
13321;SDS011;6730;46.248;6.930;2023-08-30T12:48:15;2.15;;;1.50;;
13321;SDS011;6730;46.248;6.930;2023-08-30T12:50:43;1.70;;;1.60;;
13321;SDS011;6730;46.248;6.930;2023-08-30T12:53:10;2.35;;;1.45;;
13321;SDS011;6730;46.248;6.930;2023-08-30T12:55:36;1.25;;;1.15;;
13321;SDS011;6730;46.248;6.930;2023-08-30T12:58:06;1.40;;;1.30;;
13321;SDS011;6730;46.248;6.930;2023-08-30T13:00:33;1.83;;;1.73;;
13321;SDS011;6730;46.248;6.930;2023-08-30T13:02:59;2.78;;;1.50;;
13321;SDS011;6730;46.248;6.930;2023-08-30T13:05:25;1.30;;;1.20;;
13321;SDS011;6730;46.248;6.930;2023-08-30T13:07:51;1.45;;;1.35;;
13321;SDS011;6730;46.248;6.930;2023-08-30T13:10:17;1.52;;;1.35;;
13321;SDS011;6730;46.248;6.930;2023-08-30T13:12:43;1.30;;;1.20;;
13321;SDS011;6730;46.248;6.930;2023-08-30T13:15:10;1.40;;;1.30;;
13321;SDS011;6730;46.248;6.930;2023-08-30T13:17:36;1.52;;;1.42;;
13321;SDS011;6730;46.248;6.930;2023-08-30T13:20:02;1.30;;;1.20;;
13321;SDS011;6730;46.248;6.930;2023-08-30T13:22:28;2.10;;;1.58;;
13321;SDS011;6730;46.248;6.930;2023-08-30T13:24:54;1.63;;;1.42;;
13321;SDS011;6730;46.248;6.930;2023-08-30T13:27:20;1.27;;;1.17;;
13321;SDS011;6730;46.248;6.930;2023-08-30T13:29:46;1.40;;;1.30;;
13321;SDS011;6730;46.248;6.930;2023-08-30T13:32:14;1.25;;;1.10;;
13321;SDS011;6730;46.248;6.930;2023-08-30T13:34:40;2.20;;;1.33;;
13321;SDS011;6730;46.248;6.930;2023-08-30T13:37:08;1.30;;;1.20;;
13321;SDS011;6730;46.248;6.930;2023-08-30T13:39:34;1.20;;;1.10;;
13321;SDS011;6730;46.248;6.930;2023-08-30T13:42:00;2.92;;;1.48;;
13321;SDS011;6730;46.248;6.930;2023-08-30T13:44:25;2.40;;;1.30;;
13321;SDS011;6730;46.248;6.930;2023-08-30T13:46:51;1.30;;;1.20;;
13321;SDS011;6730;46.248;6.930;2023-08-30T13:49:16;1.23;;;1.13;;
13321;SDS011;6730;46.248;6.930;2023-08-30T13:51:45;1.35;;;1.20;;
13321;SDS011;6730;46.248;6.930;2023-08-30T13:54:11;1.30;;;1.20;;
13321;SDS011;6730;46.248;6.930;2023-08-30T13:56:36;1.15;;;1.05;;
13321;SDS011;6730;46.248;6.930;2023-08-30T13:59:06;1.85;;;1.20;;
13321;SDS011;6730;46.248;6.930;2023-08-30T14:01:33;1.73;;;1.50;;
13321;SDS011;6730;46.248;6.930;2023-08-30T14:04:02;1.38;;;1.20;;
13321;SDS011;6730;46.248;6.930;2023-08-30T14:06:30;1.75;;;1.30;;
13321;SDS011;6730;46.248;6.930;2023-08-30T14:08:56;1.30;;;1.13;;
13321;SDS011;6730;46.248;6.930;2023-08-30T14:11:22;1.27;;;1.17;;
13321;SDS011;6730;46.248;6.930;2023-08-30T14:13:47;1.35;;;1.25;;
13321;SDS011;6730;46.248;6.930;2023-08-30T14:16:14;1.20;;;1.10;;
13321;SDS011;6730;46.248;6.930;2023-08-30T14:18:40;2.95;;;1.40;;
13321;SDS011;6730;46.248;6.930;2023-08-30T14:21:06;1.27;;;1.17;;
13321;SDS011;6730;46.248;6.930;2023-08-30T14:23:32;1.38;;;1.27;;
13321;SDS011;6730;46.248;6.930;2023-08-30T14:25:58;1.67;;;1.50;;
13321;SDS011;6730;46.248;6.930;2023-08-30T14:28:25;2.92;;;1.20;;
13321;SDS011;6730;46.248;6.930;2023-08-30T14:30:51;2.28;;;1.20;;
13321;SDS011;6730;46.248;6.930;2023-08-30T14:33:17;2.38;;;1.25;;
13321;SDS011;6730;46.248;6.930;2023-08-30T14:35:43;1.25;;;1.15;;
13321;SDS011;6730;46.248;6.930;2023-08-30T14:38:09;2.17;;;1.40;;
13321;SDS011;6730;46.248;6.930;2023-08-30T14:40:35;1.92;;;1.48;;
13321;SDS011;6730;46.248;6.930;2023-08-30T14:43:02;1.10;;;1.00;;
13321;SDS011;6730;46.248;6.930;2023-08-30T14:45:31;1.30;;;1.20;;
13321;SDS011;6730;46.248;6.930;2023-08-30T14:47:58;1.60;;;1.38;;
13321;SDS011;6730;46.248;6.930;2023-08-30T14:50:24;1.20;;;1.10;;
13321;SDS011;6730;46.248;6.930;2023-08-30T14:52:49;1.40;;;1.30;;
13321;SDS011;6730;46.248;6.930;2023-08-30T14:55:20;1.40;;;1.30;;
13321;SDS011;6730;46.248;6.930;2023-08-30T14:57:46;1.30;;;1.20;;
13321;SDS011;6730;46.248;6.930;2023-08-30T15:00:11;1.25;;;1.13;;
13321;SDS011;6730;46.248;6.930;2023-08-30T15:02:37;1.42;;;1.15;;
13321;SDS011;6730;46.248;6.930;2023-08-30T15:05:03;1.33;;;1.23;;
13321;SDS011;6730;46.248;6.930;2023-08-30T15:07:29;1.42;;;1.08;;
13321;SDS011;6730;46.248;6.930;2023-08-30T15:09:54;1.67;;;1.40;;
13321;SDS011;6730;46.248;6.930;2023-08-30T15:12:20;1.50;;;1.33;;
13321;SDS011;6730;46.248;6.930;2023-08-30T15:14:46;1.60;;;1.50;;
13321;SDS011;6730;46.248;6.930;2023-08-30T15:17:13;2.13;;;1.30;;
13321;SDS011;6730;46.248;6.930;2023-08-30T15:19:39;1.77;;;1.40;;
13321;SDS011;6730;46.248;6.930;2023-08-30T15:22:04;1.30;;;1.20;;
13321;SDS011;6730;46.248;6.930;2023-08-30T15:24:33;3.00;;;1.20;;
13321;SDS011;6730;46.248;6.930;2023-08-30T15:26:59;1.83;;;1.65;;
13321;SDS011;6730;46.248;6.930;2023-08-30T15:29:24;1.88;;;1.52;;
13321;SDS011;6730;46.248;6.930;2023-08-30T15:31:53;1.30;;;1.20;;
13321;SDS011;6730;46.248;6.930;2023-08-30T15:34:19;1.52;;;1.42;;
13321;SDS011;6730;46.248;6.930;2023-08-30T15:36:45;1.55;;;1.33;;
13321;SDS011;6730;46.248;6.930;2023-08-30T15:39:14;1.73;;;1.50;;